Details From LFMH - Saint Etienne Boutheon
To LESO - San Sebastian
Flight Number -
Tags Generated
Created
Modified
Stats Distance 293 nm / 542 km
Max Altitude 0 ft / 0 m
Waypoints 3
Social Downloads 2
Likes 0
Share VATSIM

Download

Looking for another format? Having issues loading an existing format? Contact us
Advertisement - Login to hide

Notes

Generated

Route

LFMH BTZ LESO

ID Type Via Altitude Latitude Longitude Leg Dist Tot Dist Heading (true) Name
O LFMH APT - 0 ft / 0 m 45.55120˚ 4.29514˚ - 0 nm - -
BTZ VOR - 0 ft / 0 m 43.46664˚ -1.51028˚ 278 nm 278 nm 245° / 241° BIARRITZ BAYONNE ANGLET VOR-DM
O LESO APT - 0 ft / 0 m 43.35035˚ -1.79740˚ 14 nm 292 nm 241° / 241° -

Altitude Profile

Advertisement - Login to hide

Weather


0- 5 10 15 20 25 30 35+ Temperature / ° C

Clouds and Precipitation
Forecast for 2017-12-17 06:00 UTC. Updated an hour ago

Ground ~20,000 ft ~40,000 ft Winds

LFMH

Details ICAO LFMH (EBU)
Name Saint Etienne Boutheon
Region France
Timezone Europe/Paris (UTC+1.0)
Stats Elevation 1,325 ft / 404 m (AMSL)
Location 45.540868° 4.296450°
Runways 1
Magnetic Variation 1.287° E

METAR

LFMH 170200Z AUTO VRB01KT 9999 FEW010 BKN027 OVC046 01/M00 Q1024

Decode

TAF

TAF LFMH 170200Z 1703/1803 VRB03KT 9999 SCT012 BKN020 TEMPO 1705/1709 2500 -SN BKN004 BECMG 1709/1712 BKN012 PROB40 TEMPO 1710/1718 4000 -SNRA BKN006

Decode

Departure Runways

ID Width Length Bearing (true) Bearing (mag) Surface Threshold Offset Overrun Length
18 148 ft / 45 m 7,568 ft / 2,307 m 174.93° 173.64° Asphalt 984 ft / 300 m 0 ft / 0 m
36 148 ft / 45 m 7,568 ft / 2,307 m 354.93° 353.64° Asphalt 558 ft / 170 m 0 ft / 0 m

LESO

Details ICAO LESO (EAS)
Name San_Sebastian
Region Spain
Timezone Europe/Madrid (UTC+1.0)
Stats Elevation 14 ft / 4 m (AMSL)
Location 43.356520° -1.790611°
Runways 1
Magnetic Variation 0.297° W

METAR

LESO 170200Z AUTO VRB02KT 8000 FEW056 04/04 Q1030

Decode

TAF

TAF LESO 162300Z 1700/1724 34006KT 9999 BKN045 TX12/1714Z TN05/1706Z TEMPO 1700/1708 RA

Decode

Destination Runways

ID Width Length Bearing (true) Bearing (mag) Surface Threshold Offset Overrun Length
04 148 ft / 45 m 5,762 ft / 1,756 m 38.68° 38.98° Asphalt 0 ft / 0 m 0 ft / 0 m
22 148 ft / 45 m 5,762 ft / 1,756 m 218.69° 218.99° Asphalt 0 ft / 0 m 0 ft / 0 m